Time;durP1;ratioP1;P1;durP2;ratioP2;P2;SDS_P1;SDS_P2;PMS_P1;PMS_P2;Temp;Humidity;BMP_temperature;BMP_pressure;BME280_temperature;BME280_humidity;BME280_pressure;Samples;Min_cycle;Max_cycle;Signal;HPM_P1;HPM_P2
2022/03/16 00:03:29;;;;;;;25.38;12.43;;;;;;;;;;10279587;28;20062;-72
2022/03/16 00:08:31;;;;;;;25.17;12.25;;;;;;;;;;10273476;28;20078;-73
2022/03/16 00:13:33;;;;;;;24.52;12.05;;;;;;;;;;10257070;28;20737;-73
2022/03/16 00:18:34;;;;;;;31.20;11.13;;;;;;;;;;10258854;28;20053;-73
2022/03/16 00:23:36;;;;;;;23.70;10.95;;;;;;;;;;10256015;28;20058;-73
2022/03/16 00:28:37;;;;;;;20.55;10.23;;;;;;;;;;10259962;28;20050;-73
2022/03/16 00:33:39;;;;;;;23.13;10.68;;;;;;;;;;10257741;28;20046;-73
2022/03/16 00:38:40;;;;;;;26.52;10.50;;;;;;;;;;10264378;28;21256;-73
2022/03/16 00:43:42;;;;;;;22.85;10.05;;;;;;;;;;10268465;28;20054;-73
2022/03/16 00:48:45;;;;;;;23.58;10.65;;;;;;;;;;10266486;28;20785;-72
2022/03/16 00:53:47;;;;;;;26.15;10.25;;;;;;;;;;10262033;28;20499;-72
2022/03/16 00:58:51;;;;;;;21.63;10.27;;;;;;;;;;10265021;28;20069;-72
2022/03/16 01:03:56;;;;;;;21.77;9.50;;;;;;;;;;10310435;28;20046;-70
2022/03/16 01:08:58;;;;;;;23.38;9.38;;;;;;;;;;10316401;28;20050;-73
2022/03/16 01:13:59;;;;;;;16.90;7.30;;;;;;;;;;10310073;28;20074;-72
2022/03/16 01:19:01;;;;;;;13.93;6.90;;;;;;;;;;10302674;28;20482;-71
2022/03/16 01:24:02;;;;;;;16.67;6.93;;;;;;;;;;10293515;28;20047;-71
2022/03/16 01:29:04;;;;;;;15.90;6.65;;;;;;;;;;10292043;28;20506;-71
2022/03/16 01:34:05;;;;;;;15.43;6.72;;;;;;;;;;10293572;28;20043;-71
2022/03/16 01:39:06;;;;;;;16.42;7.22;;;;;;;;;;10287087;28;20046;-71
2022/03/16 01:44:08;;;;;;;13.30;7.07;;;;;;;;;;10284916;28;20429;-71
2022/03/16 01:49:11;;;;;;;15.32;6.82;;;;;;;;;;10294402;28;20507;-71
2022/03/16 01:54:12;;;;;;;20.25;7.18;;;;;;;;;;10290144;28;22058;-71
2022/03/16 01:59:13;;;;;;;16.60;8.00;;;;;;;;;;10289486;28;20043;-71
2022/03/16 02:04:15;;;;;;;15.63;6.93;;;;;;;;;;10302020;28;20773;-71
2022/03/16 02:09:16;;;;;;;16.35;7.63;;;;;;;;;;10286576;28;20479;-72
2022/03/16 02:14:21;;;;;;;16.50;7.15;;;;;;;;;;10309034;28;20045;-70
2022/03/16 02:19:24;;;;;;;17.73;7.75;;;;;;;;;;10303640;28;20046;-72
2022/03/16 02:24:26;;;;;;;14.30;6.93;;;;;;;;;;10284088;28;20158;-71
2022/03/16 02:29:28;;;;;;;20.20;8.35;;;;;;;;;;10288293;28;20054;-71
2022/03/16 02:34:29;;;;;;;23.17;7.95;;;;;;;;;;10283239;28;20137;-72
2022/03/16 02:39:32;;;;;;;18.52;7.93;;;;;;;;;;10281904;28;20113;-72
2022/03/16 02:44:33;;;;;;;18.33;7.70;;;;;;;;;;10283724;28;20050;-71
2022/03/16 02:49:35;;;;;;;16.75;7.80;;;;;;;;;;10290115;28;20708;-71
2022/03/16 02:54:36;;;;;;;19.45;8.95;;;;;;;;;;10283635;28;20050;-71
2022/03/16 02:59:37;;;;;;;18.60;8.32;;;;;;;;;;10292708;28;20140;-72
2022/03/16 03:04:39;;;;;;;18.65;7.55;;;;;;;;;;10304841;28;20061;-72
2022/03/16 03:09:40;;;;;;;19.20;8.00;;;;;;;;;;10283912;28;20566;-72
2022/03/16 03:14:42;;;;;;;15.98;7.18;;;;;;;;;;10283245;28;20069;-71
2022/03/16 03:19:43;;;;;;;18.95;7.32;;;;;;;;;;10283419;28;20081;-72
2022/03/16 03:24:44;;;;;;;18.83;6.88;;;;;;;;;;10282033;28;20046;-72
2022/03/16 03:29:46;;;;;;;15.13;7.57;;;;;;;;;;10283515;28;20050;-72
2022/03/16 03:34:51;;;;;;;18.45;7.35;;;;;;;;;;10283541;28;20046;-71
2022/03/16 03:39:52;;;;;;;17.40;7.38;;;;;;;;;;10283632;28;20626;-71
2022/03/16 03:44:54;;;;;;;13.95;7.15;;;;;;;;;;10281485;28;20039;-71
2022/03/16 03:49:55;;;;;;;16.95;6.70;;;;;;;;;;10291419;28;20046;-71
2022/03/16 03:54:56;;;;;;;18.67;7.47;;;;;;;;;;10282978;28;20082;-71
2022/03/16 03:59:58;;;;;;;19.35;8.13;;;;;;;;;;10286495;28;20577;-71
2022/03/16 04:05:02;;;;;;;17.27;8.25;;;;;;;;;;10306902;28;20065;-72
2022/03/16 04:10:04;;;;;;;17.80;8.13;;;;;;;;;;10288524;28;20129;-71
2022/03/16 04:15:05;;;;;;;16.98;7.13;;;;;;;;;;10290360;28;20061;-72
2022/03/16 04:20:07;;;;;;;17.48;8.63;;;;;;;;;;10293342;28;20149;-71
2022/03/16 04:25:09;;;;;;;20.63;7.30;;;;;;;;;;10290426;28;20489;-71
2022/03/16 04:30:10;;;;;;;18.83;7.65;;;;;;;;;;10290029;28;20038;-71
2022/03/16 04:35:12;;;;;;;20.73;7.78;;;;;;;;;;10292249;28;20073;-71
2022/03/16 04:40:13;;;;;;;18.92;8.02;;;;;;;;;;10297589;28;20487;-71
2022/03/16 04:45:15;;;;;;;16.92;7.53;;;;;;;;;;10289143;28;20046;-71
2022/03/16 04:50:16;;;;;;;18.00;8.70;;;;;;;;;;10297194;28;20049;-71
2022/03/16 04:55:18;;;;;;;18.90;7.68;;;;;;;;;;10287817;28;20043;-71
2022/03/16 05:00:19;;;;;;;20.25;8.48;;;;;;;;;;10295343;28;20149;-69
2022/03/16 05:05:21;;;;;;;17.23;8.02;;;;;;;;;;10315263;28;20066;-71
2022/03/16 05:10:34;;;;;;;19.63;7.90;;;;;;;;;;10292895;28;20039;-72
2022/03/16 05:15:35;;;;;;;18.70;7.65;;;;;;;;;;10287049;28;20053;-72
2022/03/16 05:20:37;;;;;;;16.55;8.18;;;;;;;;;;10290313;28;20045;-70
2022/03/16 05:25:38;;;;;;;18.10;8.02;;;;;;;;;;10288603;28;20050;-70
2022/03/16 05:30:40;;;;;;;18.63;7.97;;;;;;;;;;10293028;28;20048;-70
2022/03/16 05:35:41;;;;;;;18.95;8.30;;;;;;;;;;10293878;28;20085;-70
2022/03/16 05:40:43;;;;;;;22.40;8.35;;;;;;;;;;10299496;28;20577;-70
2022/03/16 05:45:45;;;;;;;20.65;8.05;;;;;;;;;;10295002;28;20086;-70
2022/03/16 05:50:46;;;;;;;22.25;9.00;;;;;;;;;;10296344;28;20699;-70
2022/03/16 05:55:48;;;;;;;19.75;8.68;;;;;;;;;;10296122;28;20050;-70
2022/03/16 06:00:49;;;;;;;23.88;9.55;;;;;;;;;;10297264;28;20085;-68
2022/03/16 06:05:51;;;;;;;23.08;10.43;;;;;;;;;;10309953;28;20039;-71
2022/03/16 06:10:52;;;;;;;25.58;9.82;;;;;;;;;;10290168;28;20165;-71
2022/03/16 06:15:53;;;;;;;21.35;9.13;;;;;;;;;;10284409;28;20503;-71
2022/03/16 06:20:55;;;;;;;23.17;9.05;;;;;;;;;;10291767;28;20407;-72
2022/03/16 06:25:56;;;;;;;26.77;9.82;;;;;;;;;;10298704;28;20764;-72
2022/03/16 06:30:58;;;;;;;21.77;10.20;;;;;;;;;;10294392;28;20612;-72
2022/03/16 06:36:02;;;;;;;34.45;11.27;;;;;;;;;;10281678;28;20565;-72
2022/03/16 06:41:03;;;;;;;36.28;13.95;;;;;;;;;;10293148;28;20050;-72
2022/03/16 06:46:05;;;;;;;30.40;12.57;;;;;;;;;;10285364;28;20134;-73
2022/03/16 06:51:10;;;;;;;23.25;10.98;;;;;;;;;;10290751;28;20186;-74
2022/03/16 06:56:12;;;;;;;35.33;10.88;;;;;;;;;;10287925;28;20042;-75
2022/03/16 07:01:13;;;;;;;28.15;11.23;;;;;;;;;;10286209;28;20058;-74
2022/03/16 07:06:15;;;;;;;27.88;10.85;;;;;;;;;;10302670;28;20499;-76
2022/03/16 07:11:16;;;;;;;29.83;13.18;;;;;;;;;;10290972;28;20058;-76
2022/03/16 07:16:21;;;;;;;43.05;15.82;;;;;;;;;;10292851;28;20043;-76
2022/03/16 07:21:27;;;;;;;48.30;16.60;;;;;;;;;;10283314;28;20185;-74
2022/03/16 07:26:29;;;;;;;40.90;16.65;;;;;;;;;;10275214;28;20133;-74
2022/03/16 07:31:30;;;;;;;41.08;16.70;;;;;;;;;;10278640;28;20544;-74
2022/03/16 07:36:33;;;;;;;38.70;17.65;;;;;;;;;;10279778;28;20050;-74
2022/03/16 07:41:35;;;;;;;38.10;16.30;;;;;;;;;;10272254;28;20050;-72
2022/03/16 07:46:36;;;;;;;41.53;17.38;;;;;;;;;;10294889;28;20054;-73
2022/03/16 07:51:38;;;;;;;37.80;15.93;;;;;;;;;;10291425;28;20054;-74
2022/03/16 07:56:43;;;;;;;41.25;16.45;;;;;;;;;;10297486;28;20053;-73
2022/03/16 08:01:50;;;;;;;40.92;16.35;;;;;;;;;;10257389;28;20576;-74
2022/03/16 08:06:52;;;;;;;41.22;16.77;;;;;;;;;;10270217;28;20051;-74
2022/03/16 08:11:54;;;;;;;42.05;17.27;;;;;;;;;;10266645;28;20046;-74
2022/03/16 08:16:55;;;;;;;40.30;18.33;;;;;;;;;;10274254;28;20534;-74
2022/03/16 08:21:57;;;;;;;47.33;19.15;;;;;;;;;;10281186;28;20510;-73
2022/03/16 08:26:59;;;;;;;46.08;19.02;;;;;;;;;;10271787;28;20544;-73
2022/03/16 08:32:03;;;;;;;41.13;17.35;;;;;;;;;;10272509;28;20035;-72
2022/03/16 08:37:05;;;;;;;44.00;19.08;;;;;;;;;;10270978;28;20745;-73
2022/03/16 08:42:12;;;;;;;41.72;17.15;;;;;;;;;;10271894;28;20049;-71
2022/03/16 08:47:17;;;;;;;46.55;20.88;;;;;;;;;;10271126;28;20047;-73
2022/03/16 08:52:19;;;;;;;49.95;20.17;;;;;;;;;;10270717;28;20135;-73
2022/03/16 08:57:22;;;;;;;49.42;20.60;;;;;;;;;;10279658;28;20066;-73
2022/03/16 09:02:34;;;;;;;53.13;21.75;;;;;;;;;;10271850;28;20054;-73
2022/03/16 09:07:38;;;;;;;55.72;22.58;;;;;;;;;;10302258;28;20492;-72
2022/03/16 09:12:40;;;;;;;54.50;21.17;;;;;;;;;;10275309;28;20047;-72
2022/03/16 09:17:42;;;;;;;55.55;22.30;;;;;;;;;;10283257;28;20128;-71
2022/03/16 09:22:44;;;;;;;46.42;21.33;;;;;;;;;;10283023;28;20081;-75
2022/03/16 09:27:45;;;;;;;45.25;19.60;;;;;;;;;;10279325;28;20165;-71
2022/03/16 09:32:47;;;;;;;58.13;23.48;;;;;;;;;;10288641;28;20271;-71
2022/03/16 09:37:49;;;;;;;44.25;20.02;;;;;;;;;;10292276;28;20050;-71
2022/03/16 09:42:52;;;;;;;43.80;20.55;;;;;;;;;;10287650;28;20047;-73
2022/03/16 09:47:53;;;;;;;41.00;18.67;;;;;;;;;;10283213;28;20433;-73
2022/03/16 09:52:56;;;;;;;41.47;19.92;;;;;;;;;;10281271;28;20054;-72
2022/03/16 09:57:57;;;;;;;41.38;19.23;;;;;;;;;;10269846;28;20143;-72
2022/03/16 10:03:02;;;;;;;36.00;17.40;;;;;;;;;;10284998;28;20101;-72
2022/03/16 10:08:08;;;;;;;36.50;18.50;;;;;;;;;;10285810;28;20050;-71
2022/03/16 10:13:14;;;;;;;37.85;17.60;;;;;;;;;;10281896;28;20047;-72
2022/03/16 10:18:19;;;;;;;35.75;16.67;;;;;;;;;;10285866;28;20042;-73
2022/03/16 10:23:24;;;;;;;38.72;18.52;;;;;;;;;;10278233;28;20085;-71
2022/03/16 10:28:32;;;;;;;32.33;16.38;;;;;;;;;;10276969;28;20537;-73
2022/03/16 10:33:50;;;;;;;33.53;16.17;;;;;;;;;;10285563;28;20502;-75
2022/03/16 10:38:58;;;;;;;37.13;16.73;;;;;;;;;;10285791;28;20071;-74
2022/03/16 10:49:22;;;;;;;30.80;15.38;;;;;;;;;;10279270;28;20449;-71
2022/03/16 10:54:24;;;;;;;30.05;14.75;;;;;;;;;;10276155;28;20458;-72
2022/03/16 10:59:29;;;;;;;33.03;14.02;;;;;;;;;;10289910;28;20053;-73
2022/03/16 11:04:35;;;;;;;25.27;12.75;;;;;;;;;;10292957;28;20054;-72
2022/03/16 11:09:37;;;;;;;24.50;11.65;;;;;;;;;;10277080;28;20054;-71
2022/03/16 11:14:50;;;;;;;22.92;10.55;;;;;;;;;;10279180;28;20109;-71
2022/03/16 11:19:52;;;;;;;27.73;11.57;;;;;;;;;;10280891;28;20054;-69
2022/03/16 11:24:58;;;;;;;25.70;11.05;;;;;;;;;;10288611;28;20050;-71
2022/03/16 11:30:12;;;;;;;19.48;10.10;;;;;;;;;;10285220;28;20050;-74
2022/03/16 11:35:14;;;;;;;27.42;11.60;;;;;;;;;;10282694;28;20042;-73
2022/03/16 11:40:20;;;;;;;23.40;11.57;;;;;;;;;;10272937;28;20686;-72
2022/03/16 11:45:41;;;;;;;25.73;11.45;;;;;;;;;;10288352;28;20050;-73
2022/03/16 11:51:08;;;;;;;26.17;12.30;;;;;;;;;;10286624;28;20137;-73
2022/03/16 11:56:20;;;;;;;20.85;10.90;;;;;;;;;;10279886;28;20041;-73
2022/03/16 12:01:26;;;;;;;25.88;11.10;;;;;;;;;;10269101;28;20871;-72
2022/03/16 12:06:47;;;;;;;22.33;9.23;;;;;;;;;;10270340;28;20713;-71
2022/03/16 12:17:32;;;;;;;20.85;9.80;;;;;;;;;;10295889;28;20117;-72
2022/03/16 12:22:36;;;;;;;19.05;9.52;;;;;;;;;;10290691;28;20050;-69
2022/03/16 12:32:58;;;;;;;;;;;;;;;;;;10268681;28;20133;-67
2022/03/16 12:38:01;;;;;;;23.00;10.43;;;;;;;;;;10287638;28;19948;-68
2022/03/16 12:43:03;;;;;;;26.05;10.45;;;;;;;;;;10276215;28;20125;-74
2022/03/16 12:48:10;;;;;;;19.73;10.48;;;;;;;;;;10278427;28;20486;-73
2022/03/16 12:53:12;;;;;;;22.95;10.90;;;;;;;;;;10282748;28;20034;-73
2022/03/16 12:58:22;;;;;;;20.98;10.20;;;;;;;;;;10285412;28;21120;-74
2022/03/16 13:03:24;;;;;;;;;;;;;;;;;;10285060;28;20131;-73
2022/03/16 13:08:26;;;;;;;22.77;10.75;;;;;;;;;;10291012;28;19930;-72
2022/03/16 13:13:28;;;;;;;20.80;10.25;;;;;;;;;;10284008;28;20055;-71
2022/03/16 13:21:41;;;;;;;22.50;10.35;;;;;;;;;;10331218;27;1214029;-69
2022/03/16 13:26:43;;;;;;;21.77;10.30;;;;;;;;;;10354152;28;20144;-70
2022/03/16 13:31:45;;;;;;;25.00;11.20;;;;;;;;;;10372778;28;20843;-71
2022/03/16 13:36:48;;;;;;;24.02;10.48;;;;;;;;;;10367763;28;20938;-68
2022/03/16 13:42:12;;;;;;;20.40;10.23;;;;;;;;;;10375984;28;20072;-71
2022/03/16 13:47:17;;;;;;;23.60;10.07;;;;;;;;;;10380686;28;20091;-70
2022/03/16 13:52:27;;;;;;;19.55;9.98;;;;;;;;;;10387090;28;20289;-71
2022/03/16 13:57:29;;;;;;;19.65;9.13;;;;;;;;;;10378139;28;20049;-70
2022/03/16 14:02:31;;;;;;;21.40;10.18;;;;;;;;;;10358524;28;20132;-70
2022/03/16 14:07:42;;;;;;;19.83;8.73;;;;;;;;;;10373957;28;20141;-70
2022/03/16 14:12:44;;;;;;;20.88;9.35;;;;;;;;;;10366958;28;20033;-69
2022/03/16 14:17:58;;;;;;;17.83;9.00;;;;;;;;;;10354352;28;20603;-67
2022/03/16 14:23:01;;;;;;;21.63;10.65;;;;;;;;;;10352931;28;20046;-67
2022/03/16 14:28:03;;;;;;;20.38;9.82;;;;;;;;;;10370295;28;20919;-70
2022/03/16 14:33:08;;;;;;;26.60;10.13;;;;;;;;;;10343144;28;20137;-67
2022/03/16 14:38:09;;;;;;;22.23;9.43;;;;;;;;;;10344078;28;20043;-68
2022/03/16 14:43:11;;;;;;;21.90;10.43;;;;;;;;;;10342824;28;20119;-69
2022/03/16 14:48:12;;;;;;;20.42;9.30;;;;;;;;;;10341776;28;20045;-68
2022/03/16 14:53:14;;;;;;;20.55;10.02;;;;;;;;;;10343252;28;20046;-66
2022/03/16 14:58:15;;;;;;;25.55;12.30;;;;;;;;;;10342839;28;20056;-69
2022/03/16 15:03:18;;;;;;;19.75;8.70;;;;;;;;;;10354366;28;20057;-69
2022/03/16 15:08:19;;;;;;;20.40;9.30;;;;;;;;;;10343671;28;20060;-69
2022/03/16 15:13:21;;;;;;;19.67;8.68;;;;;;;;;;10334074;28;20630;-68
2022/03/16 15:18:23;;;;;;;25.02;11.00;;;;;;;;;;10342504;28;20107;-65
2022/03/16 15:23:24;;;;;;;23.23;10.55;;;;;;;;;;10330608;28;20041;-70
2022/03/16 15:28:26;;;;;;;18.63;8.93;;;;;;;;;;10354046;28;20053;-70
2022/03/16 15:33:28;;;;;;;21.58;9.23;;;;;;;;;;10337543;28;20049;-68
2022/03/16 15:38:29;;;;;;;25.80;11.48;;;;;;;;;;10328014;28;20647;-68
2022/03/16 15:43:31;;;;;;;19.15;9.95;;;;;;;;;;10308672;28;20049;-71
2022/03/16 15:48:32;;;;;;;20.00;9.38;;;;;;;;;;10307941;28;20050;-71
2022/03/16 15:53:34;;;;;;;20.02;8.13;;;;;;;;;;10302350;28;20054;-71
2022/03/16 15:58:40;;;;;;;28.48;12.73;;;;;;;;;;10301734;28;20137;-69
2022/03/16 16:03:43;;;;;;;33.90;14.23;;;;;;;;;;10306832;28;20061;-69
2022/03/16 16:08:45;;;;;;;21.67;8.55;;;;;;;;;;10317280;28;20502;-68
2022/03/16 16:13:47;;;;;;;15.60;7.47;;;;;;;;;;10294900;28;20050;-68
2022/03/16 16:18:49;;;;;;;20.90;8.82;;;;;;;;;;10304321;28;20162;-70
2022/03/16 16:23:51;;;;;;;19.80;8.68;;;;;;;;;;10306327;28;20074;-72
2022/03/16 16:28:53;;;;;;;18.45;7.90;;;;;;;;;;10295987;28;20046;-71
2022/03/16 16:33:55;;;;;;;18.05;7.75;;;;;;;;;;10301491;28;20142;-72
2022/03/16 16:38:57;;;;;;;17.77;8.15;;;;;;;;;;10300740;28;20047;-71
2022/03/16 16:43:59;;;;;;;18.63;9.23;;;;;;;;;;10296572;28;20081;-72
2022/03/16 16:49:01;;;;;;;17.48;8.60;;;;;;;;;;10294585;28;20524;-70
2022/03/16 16:54:03;;;;;;;20.20;7.60;;;;;;;;;;10289004;28;20176;-69
2022/03/16 16:59:05;;;;;;;17.08;7.72;;;;;;;;;;10289376;28;20039;-70
2022/03/16 17:04:06;;;;;;;17.20;7.72;;;;;;;;;;10317243;28;20046;-70
2022/03/16 17:09:08;;;;;;;21.42;8.65;;;;;;;;;;10288843;28;20070;-70
2022/03/16 17:14:12;;;;;;;16.85;7.45;;;;;;;;;;10266035;28;20042;-67
2022/03/16 17:19:13;;;;;;;20.33;8.52;;;;;;;;;;10269552;28;20042;-68
2022/03/16 17:24:15;;;;;;;18.30;8.43;;;;;;;;;;10289038;28;20046;-67
2022/03/16 17:29:16;;;;;;;23.05;8.50;;;;;;;;;;10284978;28;20042;-69
2022/03/16 17:34:19;;;;;;;20.75;9.15;;;;;;;;;;10294187;28;20125;-71
2022/03/16 17:39:20;;;;;;;20.10;7.72;;;;;;;;;;10289730;28;20043;-71
2022/03/16 17:49:42;;;;;;;20.27;8.10;;;;;;;;;;10289204;28;20505;-68
2022/03/16 17:54:43;;;;;;;17.05;7.95;;;;;;;;;;10287182;28;20130;-69
2022/03/16 17:59:45;;;;;;;23.25;8.50;;;;;;;;;;10294863;28;20050;-70
2022/03/16 18:04:46;;;;;;;20.08;8.00;;;;;;;;;;10311763;28;20046;-70
2022/03/16 18:15:09;;;;;;;17.48;8.23;;;;;;;;;;10351541;28;20042;-69
2022/03/16 18:20:11;;;;;;;15.43;7.68;;;;;;;;;;10334894;28;20532;-69
2022/03/16 18:25:12;;;;;;;18.15;8.85;;;;;;;;;;10336937;28;20042;-69
2022/03/16 18:30:13;;;;;;;19.27;8.30;;;;;;;;;;10340315;28;20038;-69
2022/03/16 18:35:15;;;;;;;22.15;8.80;;;;;;;;;;10332730;28;20046;-70
2022/03/16 18:40:18;;;;;;;16.35;8.70;;;;;;;;;;10332612;28;20092;-70
2022/03/16 18:45:20;;;;;;;16.20;7.10;;;;;;;;;;10335664;28;20046;-67
2022/03/16 18:50:22;;;;;;;13.15;6.63;;;;;;;;;;10333491;28;20045;-67
2022/03/16 18:55:24;;;;;;;16.77;6.55;;;;;;;;;;10334337;28;20498;-67
2022/03/16 19:00:26;;;;;;;17.48;7.07;;;;;;;;;;10333653;28;20049;-66
2022/03/16 19:05:27;;;;;;;19.17;7.60;;;;;;;;;;10358093;28;20116;-67
2022/03/16 19:10:29;;;;;;;16.00;6.40;;;;;;;;;;10317604;28;20121;-66
2022/03/16 19:15:30;;;;;;;13.73;6.05;;;;;;;;;;10336024;28;20057;-67
2022/03/16 19:20:32;;;;;;;14.13;7.15;;;;;;;;;;10328913;28;21010;-67
2022/03/16 19:25:50;;;;;;;14.27;6.18;;;;;;;;;;10335894;28;20713;-69
2022/03/16 19:30:57;;;;;;;15.25;6.90;;;;;;;;;;10340259;28;20049;-68
2022/03/16 19:35:59;;;;;;;15.32;7.05;;;;;;;;;;10337353;28;20104;-70
2022/03/16 19:41:01;;;;;;;15.77;6.82;;;;;;;;;;10329337;28;20033;-69
2022/03/16 19:46:02;;;;;;;16.77;6.93;;;;;;;;;;10335178;28;20053;-70
2022/03/16 19:51:04;;;;;;;14.77;6.85;;;;;;;;;;10335931;28;20168;-68
2022/03/16 19:56:06;;;;;;;16.60;7.35;;;;;;;;;;10339419;28;20046;-70
2022/03/16 20:01:09;;;;;;;17.13;7.53;;;;;;;;;;10342225;28;20042;-67
2022/03/16 20:06:11;;;;;;;19.08;7.82;;;;;;;;;;10355454;28;20074;-69
2022/03/16 20:11:12;;;;;;;19.73;7.63;;;;;;;;;;10335429;28;20054;-69
2022/03/16 20:16:14;;;;;;;18.27;8.10;;;;;;;;;;10331723;28;20062;-69
2022/03/16 20:21:16;;;;;;;19.67;8.25;;;;;;;;;;10333946;28;20211;-68
2022/03/16 20:26:18;;;;;;;18.40;8.02;;;;;;;;;;10331478;28;20061;-68
2022/03/16 20:31:19;;;;;;;15.18;7.35;;;;;;;;;;10338681;28;20132;-68
2022/03/16 20:36:21;;;;;;;15.63;7.55;;;;;;;;;;10338651;28;20119;-69
2022/03/16 20:41:23;;;;;;;15.65;8.18;;;;;;;;;;10336314;28;20042;-69
2022/03/16 20:46:24;;;;;;;16.52;8.18;;;;;;;;;;10343360;28;20059;-68
2022/03/16 20:51:26;;;;;;;20.65;7.55;;;;;;;;;;10337651;28;20057;-69
2022/03/16 20:56:27;;;;;;;22.73;8.20;;;;;;;;;;10340638;28;20043;-69
2022/03/16 21:01:29;;;;;;;19.25;7.28;;;;;;;;;;10337279;28;20050;-67
2022/03/16 21:06:35;;;;;;;19.70;8.45;;;;;;;;;;10339986;28;20141;-70
2022/03/16 21:11:36;;;;;;;17.95;8.35;;;;;;;;;;10342036;28;20072;-69
2022/03/16 21:16:38;;;;;;;15.07;6.95;;;;;;;;;;10334807;28;20815;-70
2022/03/16 21:21:40;;;;;;;17.75;8.90;;;;;;;;;;10307444;28;20178;-69
2022/03/16 21:26:41;;;;;;;21.77;8.73;;;;;;;;;;10331585;28;20053;-69
2022/03/16 21:31:43;;;;;;;18.08;8.13;;;;;;;;;;10322410;28;20516;-69
2022/03/16 21:36:44;;;;;;;18.25;7.90;;;;;;;;;;10330254;28;20053;-68
2022/03/16 21:47:10;;;;;;;22.55;10.02;;;;;;;;;;10345444;28;20054;-69
2022/03/16 21:52:19;;;;;;;24.63;10.98;;;;;;;;;;10328245;28;20076;-71
2022/03/16 21:57:20;;;;;;;19.27;9.40;;;;;;;;;;10343685;28;20054;-70
2022/03/16 22:02:31;;;;;;;21.60;8.98;;;;;;;;;;10349122;28;20644;-67
2022/03/16 22:07:34;;;;;;;20.00;9.43;;;;;;;;;;10340085;28;20135;-70
2022/03/16 22:12:35;;;;;;;25.13;10.68;;;;;;;;;;10336735;28;20054;-69
2022/03/16 22:17:37;;;;;;;19.48;10.45;;;;;;;;;;10340925;28;20042;-69
2022/03/16 22:22:38;;;;;;;21.52;10.48;;;;;;;;;;10336409;28;20050;-69
2022/03/16 22:27:40;;;;;;;21.95;10.63;;;;;;;;;;10326394;28;20084;-68
2022/03/16 22:32:41;;;;;;;23.98;11.00;;;;;;;;;;10335671;28;21016;-70
2022/03/16 22:37:42;;;;;;;20.50;11.23;;;;;;;;;;10337045;28;20073;-69
2022/03/16 22:42:45;;;;;;;25.45;11.80;;;;;;;;;;10313016;28;20545;-69
2022/03/16 22:47:47;;;;;;;21.17;11.77;;;;;;;;;;10340920;28;20062;-70
2022/03/16 22:52:48;;;;;;;24.88;12.15;;;;;;;;;;10327485;28;20152;-69
2022/03/16 22:57:50;;;;;;;24.42;13.00;;;;;;;;;;10326101;28;20452;-69
2022/03/16 23:02:52;;;;;;;24.95;12.30;;;;;;;;;;10354348;28;20054;-67
2022/03/16 23:07:54;;;;;;;23.13;12.55;;;;;;;;;;10329238;28;20058;-69
2022/03/16 23:12:56;;;;;;;25.08;13.40;;;;;;;;;;10337104;28;20045;-69
2022/03/16 23:17:57;;;;;;;24.95;13.43;;;;;;;;;;10336080;28;20057;-69
2022/03/16 23:23:02;;;;;;;24.67;12.32;;;;;;;;;;10343136;28;20851;-69
2022/03/16 23:28:04;;;;;;;31.52;13.13;;;;;;;;;;10340866;28;20050;-69
2022/03/16 23:33:06;;;;;;;28.40;12.95;;;;;;;;;;10334098;28;20169;-70
2022/03/16 23:38:07;;;;;;;25.15;14.00;;;;;;;;;;10327310;28;20097;-69
2022/03/16 23:43:09;;;;;;;24.40;12.32;;;;;;;;;;10336794;28;20078;-70
2022/03/16 23:48:10;;;;;;;26.02;12.85;;;;;;;;;;10339109;28;20559;-68
2022/03/16 23:53:11;;;;;;;24.73;12.63;;;;;;;;;;10333482;28;20050;-67
2022/03/16 23:58:13;;;;;;;25.50;12.70;;;;;;;;;;10339381;28;20136;-69
